Paulina, Oregon
Current Conditions -  °F | °C
As of 10:55 PM on Saturday 20 Dec 2014 (Local Time) from KS39 Reporting Station
Light Rain Light Rain  
Wind Chill: 50°   Ceiling: 4600
Heat Index: 50°   Visibility: 7mi
Dew Point: 45°   Wind: 15mph
Humidity: 82%   Direction: 220°SW
Pressure: 29.81"   Gusts: 22mph
Location:  44.13°N, 119.97°W
Report Text: KS39 210655Z AUTO 22013G19KT 7SM -RA BKN046 OVC060 10/07 A2981 RMK AO2
Loading
Personal Weather Stations






























Interactive Weather Map New forecast layout! Learn more

10-Day Weather Forecast

Advertisements
Track Severe Weather on mobile